^^
Datos históricos de la estación: Murcia-Puente Tocinos
Diario Informe para Enero 2, 2019 Unidades:  Ingés    Métrico   Ambas
Diario Semanal Mensual Anual
  Máxima: Mínima: Promedio:
Temperatura: 67.5 °F 39.7 °F 51.6 °F
Punto de rocio: 46.9 °F 32.4 °F 37.9 °F
Humedad: 85% 28% 64%
Velocidad viento: 11.2mph 0mph 4mph
Racha viento: 19mph - -
Viento- - Sur
Presión: 30.4 in 30.2 in -
Precipitación: 0 in    
 
 
Tabla de datos para Enero 2, 2019
Hora Temperatura Punto de rocio Presión Viento Velocidad viento Racha viento Humedad Intensidad lluvia(por hora) Nubes
00:04 48.9 °F 41.7 °F 30.4 in Sur 4.7 mph 7 mph 75.8% 0 in
00:09 48.7 °F 41.2 °F 30.4 in Sur 4.7 mph 7 mph 74.7% 0 in
00:14 48.7 °F 41 °F 30.4 in Sur 4.7 mph 7.4 mph 74.8% 0 in
00:19 48.6 °F 40.6 °F 30.4 in Sur 4.7 mph 7 mph 74.1% 0 in
00:24 48.4 °F 40.3 °F 30.4 in SSO 4.7 mph 7 mph 73.7% 0 in
00:29 48.4 °F 40.1 °F 30.4 in SSO 4.5 mph 6.9 mph 73% 0 in
00:34 48.6 °F 40.3 °F 30.4 in SSO 4.3 mph 7 mph 73% 0 in
00:39 48.6 °F 40.3 °F 30.4 in SSO 4.1 mph 6.9 mph 73% 0 in
00:44 48.6 °F 40.1 °F 30.4 in SO 4 mph 7 mph 73% 0 in
00:49 48.2 °F 39.9 °F 30.4 in SO 3.8 mph 6.2 mph 73% 0 in
00:54 48 °F 39.9 °F 30.4 in SO 3.6 mph 6.9 mph 73.2% 0 in
00:59 47.8 °F 40.1 °F 30.4 in SO 3.9 mph 7 mph 74% 0 in
01:04 47.8 °F 40.3 °F 30.4 in SSO 4 mph 6 mph 75% 0 in
01:09 47.7 °F 40.5 °F 30.3 in SSO 4 mph 6 mph 76% 0 in
01:14 47.7 °F 40.6 °F 30.3 in SSO 4 mph 6 mph 76.6% 0 in
01:19 47.7 °F 40.8 °F 30.3 in SSO 4 mph 6.2 mph 77% 0 in
01:24 47.5 °F 40.6 °F 30.3 in SO 4 mph 6 mph 77% 0 in
01:29 47.5 °F 40.6 °F 30.3 in SO 4.2 mph 6.2 mph 77.2% 0 in
01:34 47.1 °F 40.6 °F 30.3 in SO 4.3 mph 6.9 mph 78% 0 in
01:39 47.1 °F 40.6 °F 30.3 in SO 4.3 mph 7 mph 78% 0 in
01:44 46.9 °F 40.5 °F 30.3 in SO 4.3 mph 6 mph 78% 0 in
01:49 46.9 °F 40.1 °F 30.3 in SO 3.9 mph 6 mph 77.2% 0 in
01:54 46.8 °F 39.9 °F 30.3 in SO 3.6 mph 6 mph 77% 0 in
01:59 46.8 °F 39.7 °F 30.3 in SSO 3.2 mph 5.9 mph 76.6% 0 in
02:04 46.6 °F 39.4 °F 30.3 in SSO 3.1 mph 6 mph 76% 0 in
02:09 46.6 °F 39.4 °F 30.3 in SSO 2.4 mph 5 mph 76% 0 in
02:14 46.2 °F 38.7 °F 30.3 in SO 2 mph 5.9 mph 74.6% 0 in
02:19 46.2 °F 37.9 °F 30.3 in SSO 2.7 mph 6.9 mph 73% 0 in
02:24 46.2 °F 37.9 °F 30.3 in SSO 3.1 mph 7 mph 73% 0 in
02:29 46 °F 37.9 °F 30.3 in Sur 3.7 mph 6.9 mph 73.2% 0 in
02:34 45.5 °F 37.8 °F 30.3 in Sur 4 mph 7 mph 74% 0 in
02:39 45.1 °F 37.6 °F 30.3 in SSO 4.4 mph 8.1 mph 74.5% 0 in
02:44 45.1 °F 37.8 °F 30.3 in SSO 4.7 mph 8 mph 75% 0 in
02:49 45.1 °F 37.8 °F 30.3 in SSO 4.5 mph 7 mph 75% 0 in
02:54 45.1 °F 37.8 °F 30.3 in SSO 4.3 mph 5.4 mph 75% 0 in
02:59 45.1 °F 37.8 °F 30.3 in SSO 3.5 mph 5.2 mph 75% 0 in
03:04 45.1 °F 37.6 °F 30.3 in SSO 3.1 mph 5 mph 75% 0 in
03:09 45 °F 37.2 °F 30.3 in SSO 3.1 mph 5 mph 74.1% 0 in
03:14 45 °F 37.2 °F 30.3 in Sur 3.1 mph 5 mph 74% 0 in
03:19 45 °F 37.2 °F 30.3 in Sur 3 mph 5.2 mph 74% 0 in
03:24 44.8 °F 37 °F 30.3 in Sur 2.9 mph 6.2 mph 74.3% 0 in
03:29 44.4 °F 36.9 °F 30.3 in Sur 3.4 mph 6.9 mph 74.7% 0 in
03:34 44.1 °F 36.5 °F 30.3 in SSE 3.6 mph 7 mph 74.8% 0 in
03:39 43.5 °F 36.1 °F 30.3 in SSE 4 mph 6.9 mph 75% 0 in
03:44 43.2 °F 35.8 °F 30.3 in SSE 4.3 mph 7 mph 75.2% 0 in
03:49 42.6 °F 35.6 °F 30.3 in SSE 4.8 mph 7.4 mph 76% 0 in
03:54 42.4 °F 35.6 °F 30.3 in SSE 5.2 mph 7 mph 76.7% 0 in
03:59 42.3 °F 35.6 °F 30.3 in SSE 4.8 mph 6.9 mph 77.5% 0 in
04:04 42.1 °F 35.8 °F 30.3 in Sur 4.7 mph 7 mph 78% 0 in
04:09 42.1 °F 35.8 °F 30.3 in Sur 4.5 mph 7 mph 78% 0 in
04:14 42.3 °F 35.6 °F 30.3 in Sur 4.3 mph 6.9 mph 77.2% 0 in
04:19 42.4 °F 35.8 °F 30.3 in Sur 4.5 mph 7 mph 76.6% 0 in
04:24 42.6 °F 35.6 °F 30.3 in Sur 4.7 mph 6.2 mph 76% 0 in
04:29 42.6 °F 35.6 °F 30.3 in Sur 4 mph 6 mph 76% 0 in
04:34 42.6 °F 35.6 °F 30.3 in Sur 3.6 mph 6.9 mph 76% 0 in
04:39 42.4 °F 35.6 °F 30.3 in Sur 4 mph 7 mph 76.6% 0 in
04:44 42.4 °F 35.8 °F 30.3 in Sur 4.3 mph 7 mph 77% 0 in
04:49 42.4 °F 35.8 °F 30.3 in SSO 4.1 mph 6 mph 77% 0 in
04:54 42.4 °F 35.8 °F 30.3 in SSO 4 mph 6 mph 77% 0 in
04:59 42.4 °F 35.6 °F 30.3 in SSO 3.3 mph 5 mph 76.6% 0 in
05:04 42.3 °F 35.2 °F 30.3 in Sur 2.9 mph 4.7 mph 76% 0 in
05:09 42.3 °F 35.2 °F 30.3 in SSE 3 mph 6.2 mph 76% 0 in
05:14 41.7 °F 34.9 °F 30.3 in SSE 3.1 mph 6.2 mph 76.8% 0 in
05:19 41.4 °F 35.1 °F 30.3 in Sur 3.9 mph 7.4 mph 77.9% 0 in
05:24 41.2 °F 34.5 °F 30.3 in Sur 4.3 mph 7 mph 77.2% 0 in
05:29 41.2 °F 34.5 °F 30.3 in Sur 4.3 mph 6.2 mph 77% 0 in
05:34 41.4 °F 34.5 °F 30.3 in SSO 4.3 mph 6.9 mph 76.4% 0 in
05:39 41.4 °F 34.2 °F 30.3 in SSO 4.1 mph 7 mph 75.2% 0 in
05:44 41.5 °F 34.2 °F 30.3 in SSO 4 mph 6.9 mph 74.6% 0 in
05:49 41.7 °F 34 °F 30.3 in SSO 4.2 mph 7 mph 74% 0 in
05:54 41.7 °F 34 °F 30.3 in SSO 4.3 mph 7 mph 73.9% 0 in
05:59 41.9 °F 34 °F 30.3 in SSO 4.3 mph 5.9 mph 73.2% 0 in
06:04 41.9 °F 34.2 °F 30.3 in Sur 4.3 mph 6.2 mph 73.6% 0 in
06:09 41.9 °F 34 °F 30.3 in Sur 4.1 mph 6 mph 73% 0 in
06:14 41.7 °F 34 °F 30.3 in Sur 4 mph 6 mph 73.4% 0 in
06:19 41.9 °F 33.8 °F 30.3 in SSO 3.8 mph 6 mph 73% 0 in
06:24 41.9 °F 34 °F 30.3 in Sur 3.6 mph 6 mph 73% 0 in
06:29 41.9 °F 33.8 °F 30.3 in SSE 3.6 mph 6.2 mph 73% 0 in
06:34 41.7 °F 33.6 °F 30.3 in Sur 3.6 mph 6.9 mph 73% 0 in
06:39 41.7 °F 33.6 °F 30.3 in Sur 3.9 mph 7 mph 73% 0 in
06:44 41.5 °F 33.6 °F 30.3 in Sur 4 mph 6 mph 73% 0 in
06:49 41.7 °F 33.6 °F 30.3 in Sur 4 mph 6.4 mph 73% 0 in
06:54 41.5 °F 33.6 °F 30.3 in Sur 4 mph 7 mph 73% 0 in
06:59 41.5 °F 33.4 °F 30.3 in Sur 4.2 mph 7 mph 73% 0 in
07:04 41.7 °F 33.6 °F 30.3 in SSO 4.3 mph 6.2 mph 73% 0 in
07:09 41.7 °F 33.8 °F 30.3 in Sur 4.3 mph 6 mph 73% 0 in
07:14 41.9 °F 33.8 °F 30.3 in Sur 4.3 mph 6 mph 73% 0 in
07:19 41.7 °F 33.6 °F 30.3 in Sur 3.9 mph 5.2 mph 72.6% 0 in
07:24 42.1 °F 33.6 °F 30.3 in SSO 3.6 mph 5 mph 72% 0 in
07:29 42.1 °F 33.6 °F 30.3 in Sur 3.6 mph 5.2 mph 71.5% 0 in
07:34 42.1 °F 33.4 °F 30.3 in SSO 3.6 mph 5 mph 71% 0 in
07:39 42.1 °F 33.6 °F 30.3 in SSO 2.6 mph 5 mph 71.6% 0 in
07:44 41.9 °F 33.4 °F 30.3 in NNO 2 mph 4 mph 72% 0 in
07:49 41.5 °F 33.3 °F 30.3 in NNO 1.9 mph 3 mph 71.9% 0 in
07:54 41.4 °F 33.1 °F 30.3 in NNO 1.8 mph 3 mph 72.1% 0 in
07:59 41 °F 33.1 °F 30.3 in NNO 0.6 mph   73.5% 0 in
08:04 40.6 °F 33.3 °F 30.3 in Calm     75% 0 in
08:09 40.3 °F 32.9 °F 30.3 in Calm   3.6 mph 74.7% 0 in
08:14 40.6 °F 32.4 °F 30.3 in Calm   5.8 mph 72.3% 0 in
08:19 41.4 °F 32.7 °F 30.3 in SO 1.9 mph 6 mph 71% 0 in
08:24 41.5 °F 32.9 °F 30.3 in SO 3.1 mph 6.2 mph 71.2% 0 in
08:29 41.5 °F 32.7 °F 30.3 in SO 3.9 mph 6 mph 71% 0 in
08:34 41.5 °F 32.7 °F 30.3 in SO 4.3 mph 6 mph 71% 0 in
08:39 41.5 °F 32.7 °F 30.3 in SO 3.4 mph 5 mph 70.4% 0 in
08:44 41.5 °F 33.1 °F 30.3 in SSE 2.9 mph 4.7 mph 71.8% 0 in
08:49 41 °F 32.9 °F 30.3 in SE 3 mph 6.4 mph 72.7% 0 in
08:54 40.5 °F 32.9 °F 30.3 in SE 3.1 mph 7 mph 74.2% 0 in
08:59 39.9 °F 32.9 °F 30.3 in SSE 3.7 mph 7.6 mph 75.7% 0 in
09:04 39.7 °F 33.3 °F 30.3 in SE 4 mph 8 mph 77% 0 in
09:09 39.9 °F 33.1 °F 30.3 in SSE 3.8 mph 6.2 mph 76.3% 0 in
09:14 39.9 °F 33.1 °F 30.3 in SSE 3.6 mph 6.9 mph 76% 0 in
09:19 40.3 °F 33.3 °F 30.3 in SSE 3.9 mph 7 mph 76% 0 in
09:24 40.5 °F 33.3 °F 30.3 in SSE 4 mph 6.2 mph 75.3% 0 in
09:29 40.8 °F 33.4 °F 30.3 in SE 4 mph 6 mph 75% 0 in
09:34 41.4 °F 34 °F 30.3 in ESE 4 mph 5.8 mph 74.9% 0 in
09:39 41.9 °F 34.2 °F 30.3 in SE 3.5 mph 6 mph 74% 0 in
09:44 42.3 °F 34.2 °F 30.3 in SE 3.1 mph 5.2 mph 73.2% 0 in
09:49 42.4 °F 34.3 °F 30.3 in SE 3.1 mph 5 mph 73% 0 in
09:54 42.6 °F 34.5 °F 30.3 in SSE 3.1 mph 5 mph 72.5% 0 in
09:59 43.2 °F 34.7 °F 30.3 in Sur 3.1 mph 5.4 mph 71.8% 0 in
10:04 43.5 °F 34.7 °F 30.3 in SSO 3.1 mph 6 mph 70.8% 0 in
10:09 44.1 °F 34.9 °F 30.3 in SSO 3.4 mph 6 mph 69.8% 0 in
10:14 44.6 °F 34.9 °F 30.3 in SO 3.6 mph 5.2 mph 68.4% 0 in
10:19 45.3 °F 34.9 °F 30.3 in SSO 3.3 mph 5 mph 66.9% 0 in
10:24 46.2 °F 34.9 °F 30.3 in Sur 3.1 mph 5 mph 64.8% 0 in
10:29 46.9 °F 35.1 °F 30.3 in Sur 3 mph 5 mph 63.2% 0 in
10:34 47.7 °F 34.9 °F 30.3 in SSO 2.9 mph 5.9 mph 61.2% 0 in
10:39 48.4 °F 34.7 °F 30.3 in Sur 3 mph 6 mph 59.1% 0 in
10:44 49.1 °F 35.2 °F 30.3 in SSE 3.1 mph 6 mph 58.7% 0 in
10:49 49.6 °F 34.5 °F 30.3 in SSO 3.1 mph 6.2 mph 55.7% 0 in
10:54 50 °F 33.8 °F 30.3 in SO 3.1 mph 6 mph 53.5% 0 in
10:59 50.5 °F 33.1 °F 30.3 in SO 3 mph 5.2 mph 51.1% 0 in
11:04 50.9 °F 32.5 °F 30.3 in Oeste 2.9 mph 5 mph 49.3% 0 in
11:09 51.4 °F 32.5 °F 30.3 in ONO 2.5 mph 5 mph 48.3% 0 in
11:14 52.3 °F 33.1 °F 30.3 in ONO 2.4 mph 5 mph 47.9% 0 in
11:19 53.6 °F 33.4 °F 30.3 in ONO 1.8 mph 3 mph 46.3% 0 in
11:24 54.3 °F 33.1 °F 30.3 in ONO 1.4 mph 2.9 mph 44.4% 0 in
11:29 54.7 °F 33.3 °F 30.3 in ONO 1.4 mph 3 mph 44.1% 0 in
11:34 54.9 °F 33.8 °F 30.3 in ONO 1.4 mph 3.5 mph 45% 0 in
11:39 54.9 °F 34.3 °F 30.3 in SO 1.6 mph 4.6 mph 45.5% 0 in
11:44 55.4 °F 34.7 °F 30.3 in Sur 1.8 mph 5.8 mph 45.5% 0 in
11:49 55.8 °F 34.9 °F 30.3 in SSO 2.5 mph 6 mph 45.1% 0 in
11:54 56.1 °F 34.7 °F 30.3 in SSO 2.9 mph 5.2 mph 44.1% 0 in
11:59 56.8 °F 34.9 °F 30.3 in SSO 3 mph 6.9 mph 43.8% 0 in
12:04 57.4 °F 34.7 °F 30.3 in SSO 3.1 mph 7.4 mph 42.3% 0 in
12:09 57.9 °F 34.7 °F 30.3 in SSO 3.7 mph 7 mph 41.7% 0 in
12:14 58.5 °F 35.2 °F 30.3 in Sur 4 mph 6.2 mph 41.5% 0 in
12:19 59 °F 35.4 °F 30.3 in Sur 3.8 mph 6 mph 41% 0 in
12:24 59.4 °F 35.8 °F 30.3 in SSO 3.6 mph 6.9 mph 41% 0 in
12:29 59.7 °F 36 °F 30.3 in SSO 3.9 mph 8.1 mph 40.9% 0 in
12:34 60.3 °F 35.6 °F 30.3 in SSO 4 mph 8.5 mph 39.7% 0 in
12:39 60.6 °F 35.2 °F 30.3 in SSO 4.4 mph 9.2 mph 38.6% 0 in
12:44 60.8 °F 35.1 °F 30.3 in SO 4.7 mph 9.2 mph 38.1% 0 in
12:49 61.2 °F 34.9 °F 30.3 in OSO 5.6 mph 10.7 mph 37.3% 0 in
12:54 61.3 °F 34.9 °F 30.3 in SO 6.2 mph 11 mph 37.2% 0 in
12:59 61.7 °F 34.9 °F 30.3 in SO 5.2 mph 9.2 mph 36.5% 0 in
13:04 62.1 °F 34.5 °F 30.3 in SO 4.7 mph 10 mph 35.6% 0 in
13:09 62.4 °F 34.3 °F 30.2 in SSO 5.4 mph 10 mph 35% 0 in
13:14 62.8 °F 34.3 °F 30.2 in Sur 5.9 mph 9.2 mph 34.4% 0 in
13:19 63 °F 34.2 °F 30.2 in SSO 5.6 mph 9 mph 34% 0 in
13:24 63.3 °F 33.8 °F 30.2 in OSO 5.4 mph 9 mph 33.2% 0 in
13:29 63.7 °F 33.6 °F 30.2 in SO 5 mph 10.4 mph 32.6% 0 in
13:34 63.9 °F 33.6 °F 30.2 in OSO 4.7 mph 10 mph 32.3% 0 in
13:39 64 °F 33.1 °F 30.2 in OSO 5.2 mph 9.2 mph 31.3% 0 in
13:44 64.2 °F 33.1 °F 30.2 in OSO 5.4 mph 11.5 mph 31.2% 0 in
13:49 64.6 °F 33.3 °F 30.2 in SO 5.7 mph 12 mph 31% 0 in
13:54 64.8 °F 33.3 °F 30.2 in OSO 5.9 mph 9 mph 30.8% 0 in
13:59 65.1 °F 33.3 °F 30.2 in SO 5.6 mph 9.2 mph 30.5% 0 in
14:04 64.9 °F 33.6 °F 30.2 in SO 5.4 mph 9.2 mph 31% 0 in
14:09 65.1 °F 33.6 °F 30.2 in OSO 5.9 mph 11.8 mph 31% 0 in
14:14 65.1 °F 33.8 °F 30.2 in SO 6.2 mph 12 mph 31% 0 in
14:19 65.3 °F 33.8 °F 30.2 in SO 6 mph 10.4 mph 31% 0 in
14:24 65.1 °F 33.6 °F 30.2 in SO 5.9 mph 11.4 mph 30.9% 0 in
14:29 65.3 °F 33.8 °F 30.2 in SO 6.2 mph 11 mph 31% 0 in
14:34 65.3 °F 33.4 °F 30.2 in SO 6.4 mph 11.8 mph 30.4% 0 in
14:39 65.5 °F 34 °F 30.2 in SO 6.3 mph 12 mph 30.8% 0 in
14:44 65.8 °F 33.8 °F 30.2 in SO 6.2 mph 10.4 mph 30.4% 0 in
14:49 66 °F 33.6 °F 30.2 in SSO 5.6 mph 10 mph 30% 0 in
14:54 66 °F 33.8 °F 30.2 in SSO 5.2 mph 9 mph 30% 0 in
14:59 66.2 °F 33.4 °F 30.2 in SSO 5.2 mph 8 mph 29.7% 0 in
15:04 66 °F 33.1 °F 30.2 in Sur 5.2 mph 9.7 mph 29.3% 0 in
15:09 66 °F 33.3 °F 30.2 in Sur 5.8 mph 10 mph 29.4% 0 in
15:14 66 °F 33.6 °F 30.2 in SSO 6.2 mph 9.2 mph 29.9% 0 in
15:19 66.2 °F 33.6 °F 30.2 in SSO 5.6 mph 9 mph 29.8% 0 in
15:24 66.4 °F 33.4 °F 30.2 in SSO 5.2 mph 9.2 mph 29.4% 0 in
15:29 66.4 °F 33.4 °F 30.2 in SO 5.6 mph 9.2 mph 29.4% 0 in
15:34 66.4 °F 33.6 °F 30.2 in SSO 5.9 mph 9 mph 29.6% 0 in
15:39 66.6 °F 33.4 °F 30.2 in SSO 5.5 mph 9 mph 29.2% 0 in
15:44 66.6 °F 33.4 °F 30.2 in SSO 5.2 mph 8.1 mph 29.1% 0 in
15:49 66.7 °F 33.4 °F 30.2 in SSO 5.2 mph 8 mph 29% 0 in
15:54 66.7 °F 33.4 °F 30.2 in SSE 5.2 mph 6.9 mph 29% 0 in
15:59 66.9 °F 33.6 °F 30.2 in SSE 4.4 mph 7 mph 29% 0 in
16:04 66.9 °F 33.6 °F 30.2 in SSE 4 mph 6 mph 29% 0 in
16:09 67.1 °F 33.8 °F 30.2 in SSE 3.4 mph 6 mph 29% 0 in
16:14 67.5 °F 33.6 °F 30.2 in SSE 2.9 mph 5 mph 28.6% 0 in
16:19 67.5 °F 33.3 °F 30.2 in SSE 3 mph 6.2 mph 28.1% 0 in
16:24 67.5 °F 33.8 °F 30.2 in Sur 3.1 mph 6.2 mph 28.6% 0 in
16:29 67.5 °F 33.3 °F 30.2 in Sur 3.7 mph 6 mph 28% 0 in
16:34 67.5 °F 33.3 °F 30.2 in SSE 4 mph 5 mph 28% 0 in
16:39 67.5 °F 33.3 °F 30.2 in SE 3.4 mph 5.2 mph 28% 0 in
16:44 67.5 °F 33.4 °F 30.2 in SSE 2.9 mph 5.4 mph 28.2% 0 in
16:49 67.5 °F 33.4 °F 30.2 in SSE 3.3 mph 6 mph 28.2% 0 in
16:54 67.5 °F 33.8 °F 30.2 in SSE 3.6 mph 6 mph 28.7% 0 in
16:59 67.3 °F 33.8 °F 30.2 in SSE 3.6 mph 6 mph 29% 0 in
17:04 67.3 °F 33.8 °F 30.2 in SSE 3.6 mph 6 mph 29% 0 in
17:09 67.3 °F 34 °F 30.2 in SSE 3.3 mph 5 mph 29.1% 0 in
17:14 67.1 °F 34 °F 30.2 in SSE 3.1 mph 5 mph 29.1% 0 in
17:19 66.9 °F 34.5 °F 30.2 in Este 2.7 mph 10 mph 30.1% 0 in
17:24 65.8 °F 36.9 °F 30.2 in NE 2.4 mph 13 mph 34.2% 0 in
17:29 64.2 °F 39.4 °F 30.2 in NNE 5.4 mph 16.8 mph 40.1% 0 in
17:34 62.4 °F 43.3 °F 30.2 in NNE 7.4 mph 19 mph 49.7% 0 in
17:39 60.8 °F 44.6 °F 30.2 in NNE 9.8 mph 19 mph 55.3% 0 in
17:44 59.7 °F 45 °F 30.2 in NNE 11.2 mph 15.2 mph 57.8% 0 in
17:49 59.2 °F 44.8 °F 30.2 in NNE 10.6 mph 16.3 mph 59% 0 in
17:54 58.6 °F 44.8 °F 30.2 in NE 10.2 mph 16.1 mph 60% 0 in
17:59 58.5 °F 44.4 °F 30.2 in NE 10.1 mph 15 mph 59.7% 0 in
18:04 58.1 °F 43.9 °F 30.2 in NE 10 mph 14.7 mph 59% 0 in
18:09 57.9 °F 43.7 °F 30.2 in NE 9.1 mph 15 mph 59% 0 in
18:14 57.6 °F 43.3 °F 30.2 in NE 8.5 mph 13 mph 59% 0 in
18:19 57.4 °F 43.3 °F 30.2 in NE 7.5 mph 11 mph 59.6% 0 in
18:24 57 °F 43.5 °F 30.2 in NNE 6.9 mph 11 mph 60.8% 0 in
18:29 56.7 °F 43.9 °F 30.2 in NE 6.5 mph 10.7 mph 62.2% 0 in
18:34 56.3 °F 44.2 °F 30.3 in NE 6.2 mph 11 mph 63.9% 0 in
18:39 55.9 °F 44.6 °F 30.3 in NE 6.9 mph 12.7 mph 65.6% 0 in
18:44 55.9 °F 45.3 °F 30.3 in NE 7.4 mph 13 mph 67.5% 0 in
18:49 55.8 °F 45.7 °F 30.3 in NE 7.8 mph 13.8 mph 69.4% 0 in
18:54 55.6 °F 46.2 °F 30.3 in NE 8.1 mph 14 mph 71% 0 in
18:59 55.4 °F 46.4 °F 30.3 in NNE 8.5 mph 14 mph 71.6% 0 in
19:04 55.2 °F 46.2 °F 30.3 in NE 8.7 mph 13 mph 72% 0 in
19:09 55 °F 46.2 °F 30.3 in NE 8 mph 12.3 mph 72% 0 in
19:14 54.9 °F 46 °F 30.3 in NE 7.4 mph 13 mph 72% 0 in
19:19 54.9 °F 45.9 °F 30.3 in NE 7.1 mph 10.4 mph 71.9% 0 in
19:24 54.7 °F 45.7 °F 30.3 in NE 6.9 mph 10 mph 71.5% 0 in
19:29 54.3 °F 45.7 °F 30.3 in NE 5.8 mph 9 mph 72.4% 0 in
19:34 54.1 °F 45.9 °F 30.3 in NE 5.2 mph 7.4 mph 73.5% 0 in
19:39 54 °F 46 °F 30.3 in NE 5.2 mph 9.2 mph 74.3% 0 in
19:44 53.8 °F 46 °F 30.3 in NE 5.2 mph 9 mph 75.2% 0 in
19:49 53.6 °F 46 °F 30.3 in NNE 5.3 mph 9.2 mph 76% 0 in
19:54 53.4 °F 46.4 °F 30.3 in NNE 5.4 mph 9 mph 76.8% 0 in
19:59 53.2 °F 46.4 °F 30.3 in NNE 5.4 mph 8 mph 77.6% 0 in
20:04 53.1 °F 46.4 °F 30.3 in NE 5.4 mph 7.4 mph 78.5% 0 in
20:09 52.9 °F 46.4 °F 30.3 in NNE 5 mph 7 mph 79% 0 in
20:14 52.5 °F 46.6 °F 30.3 in NNE 4.7 mph 7 mph 79.8% 0 in
20:19 52.5 °F 46.6 °F 30.3 in NNE 4.5 mph 6.9 mph 80% 0 in
20:24 52.3 °F 46.6 °F 30.3 in NNE 4.3 mph 7 mph 80.6% 0 in
20:29 52.3 °F 46.6 °F 30.3 in North 3.5 mph 6 mph 81% 0 in
20:34 52.2 °F 46.6 °F 30.3 in NNO 3.1 mph 5 mph 81% 0 in
20:39 52.2 °F 46.6 °F 30.3 in NNO 2.1 mph 3 mph 81.5% 0 in
20:44 52 °F 46.8 °F 30.3 in North 1.4 mph 4.3 mph 82% 0 in
20:49 52 °F 46.9 °F 30.3 in North 1.4 mph 5.8 mph 82.9% 0 in
20:54 52 °F 46.9 °F 30.3 in North 1.4 mph 6 mph 83% 0 in
20:59 51.8 °F 46.8 °F 30.3 in NNO 0.5 mph 2.4 mph 83% 0 in
21:04 51.6 °F 46.6 °F 30.3 in Calm   4.7 mph 83.1% 0 in
21:09 51.8 °F 46.9 °F 30.3 in NNE 1.2 mph 5 mph 83.5% 0 in
21:14 52 °F 46.9 °F 30.3 in NNE 2 mph 5 mph 83% 0 in
21:19 52 °F 46.9 °F 30.3 in NNE 2 mph 5 mph 83% 0 in
21:24 52.2 °F 46.8 °F 30.3 in NNE 2 mph 3 mph 82.2% 0 in
21:29 52.2 °F 46.8 °F 30.3 in NNE 0.8 mph 2 mph 82% 0 in
21:34 52 °F 46.8 °F 30.3 in Calm     82% 0 in
21:39 51.8 °F 46.4 °F 30.3 in Calm     82% 0 in
21:44 51.6 °F 46.6 °F 30.3 in Calm   4.7 mph 82.8% 0 in
21:49 51.4 °F 46.4 °F 30.3 in Sur 1.1 mph 5 mph 83% 0 in
21:54 51.3 °F 46.4 °F 30.3 in Sur 1.8 mph 5 mph 83.5% 0 in
21:59 51.3 °F 46.6 °F 30.3 in Sur 1.9 mph 4 mph 84% 0 in
22:04 51.3 °F 46.6 °F 30.3 in Sur 2 mph 3.1 mph 84% 0 in
22:09 51.3 °F 46.6 °F 30.3 in Sur 1.6 mph 4.6 mph 84% 0 in
22:14 51.3 °F 46.2 °F 30.3 in Sur 1.4 mph 5 mph 83% 0 in
22:19 51.1 °F 46.2 °F 30.3 in Sur 1.4 mph 2 mph 83.4% 0 in
22:24 51.1 °F 46.2 °F 30.3 in Sur 1.4 mph   83% 0 in
22:29 51.1 °F 46 °F 30.3 in Sur 0.6 mph   83% 0 in
22:34 50.9 °F 45.7 °F 30.3 in Calm   5.4 mph 82.5% 0 in
22:39 50.5 °F 45.1 °F 30.3 in ESE 1.4 mph 6 mph 82% 0 in
22:44 50.2 °F 44.8 °F 30.3 in SSE 2.4 mph 6 mph 82% 0 in
22:49 49.6 °F 44.4 °F 30.3 in SSE 2.9 mph 5.8 mph 82.3% 0 in
22:54 49.3 °F 44.4 °F 30.3 in SSE 3.1 mph 6 mph 83% 0 in
22:59 48.9 °F 44.2 °F 30.3 in SSE 3.4 mph 6 mph 83.8% 0 in
23:04 48.7 °F 44.2 °F 30.3 in Sur 3.6 mph 6.2 mph 84% 0 in
23:09 48.7 °F 44.2 °F 30.3 in SSO 3.6 mph 6 mph 84.4% 0 in
23:14 48.7 °F 44.4 °F 30.3 in SSO 3.6 mph 6.2 mph 85% 0 in
23:19 48.7 °F 44.4 °F 30.3 in SO 3.9 mph 6 mph 85% 0 in
23:24 48.7 °F 44.4 °F 30.3 in SO 4 mph 6 mph 85% 0 in
23:29 48.9 °F 44.6 °F 30.3 in SO 3.5 mph 5 mph 85% 0 in
23:34 48.9 °F 44.6 °F 30.3 in SO 3.1 mph 5 mph 85% 0 in
23:39 48.9 °F 44.6 °F 30.3 in SO 3 mph 5.8 mph 85% 0 in
23:44 49.1 °F 44.8 °F 30.3 in SO 2.9 mph 6 mph 85% 0 in
23:49 49.1 °F 44.8 °F 30.3 in SO 3 mph 8.1 mph 85% 0 in
23:54 49.1 °F 44.8 °F 30.3 in SSO 3.1 mph 8 mph 85% 0 in
23:59 49.1 °F 44.8 °F 30.3 in SSO 4.2 mph 8.1 mph 85% 0 in
Murcia-Puente Tocinos, Espa?a
Compliments of Weather Underground - 3 mb

La estación de MeteoMurcia.com, publica sus datos en los siguientes proyectos:

Weather Underground PWS IMURCIAP2 Meteoclimatic www.awekas.at

W3Counter
Web Analytics